createdAt,value
2019-05-16T00:00:40.392Z,1015.06
2019-05-16T00:01:38.638Z,1015.02
2019-05-16T00:02:38.412Z,1015.02
2019-05-16T00:03:38.505Z,1015.01
2019-05-16T00:04:38.414Z,1014.98
2019-05-16T00:05:50.869Z,1014.95
2019-05-16T00:06:39.338Z,1014.93
2019-05-16T00:07:39.000Z,1014.90
2019-05-16T00:08:38.807Z,1014.88
2019-05-16T00:09:38.367Z,1014.87
2019-05-16T00:10:38.429Z,1014.83
2019-05-16T00:11:38.569Z,1014.81
2019-05-16T00:12:39.992Z,1014.76
2019-05-16T00:13:38.415Z,1014.75
2019-05-16T00:14:38.738Z,1014.76
2019-05-16T00:15:38.241Z,1014.75
2019-05-16T00:16:38.240Z,1014.75
2019-05-16T00:17:38.766Z,1014.68
2019-05-16T00:18:38.808Z,1014.69
2019-05-16T00:19:38.311Z,1014.66
2019-05-16T00:20:38.675Z,1014.64
2019-05-16T00:21:38.403Z,1014.61
2019-05-16T00:22:39.436Z,1014.65
2019-05-16T00:23:38.159Z,1014.62
2019-05-16T00:24:38.250Z,1014.59
2019-05-16T00:25:38.622Z,1014.55
2019-05-16T00:26:38.847Z,1014.56
2019-05-16T00:27:38.791Z,1014.54
2019-05-16T00:28:38.155Z,1014.50
2019-05-16T00:29:38.394Z,1014.46
2019-05-16T00:30:39.096Z,1014.54
2019-05-16T00:31:38.370Z,1014.48
2019-05-16T00:32:39.049Z,1014.49
2019-05-16T00:33:38.141Z,1014.47
2019-05-16T00:34:38.546Z,1014.47
2019-05-16T00:35:38.860Z,1014.39
2019-05-16T00:36:38.339Z,1014.39
2019-05-16T00:37:39.115Z,1014.39
2019-05-16T00:38:38.081Z,1014.33
2019-05-16T00:39:38.848Z,1014.31
2019-05-16T00:40:38.243Z,1014.29
2019-05-16T00:41:38.538Z,1014.27
2019-05-16T00:42:39.034Z,1014.26
2019-05-16T00:43:38.040Z,1014.28
2019-05-16T00:44:38.727Z,1014.26
2019-05-16T00:45:38.536Z,1014.23
2019-05-16T00:46:38.515Z,1014.24
2019-05-16T00:47:38.877Z,1014.22
2019-05-16T00:48:38.254Z,1014.20
2019-05-16T00:49:38.597Z,1014.16
2019-05-16T00:50:38.767Z,1014.14
2019-05-16T00:51:37.887Z,1014.11
2019-05-16T00:52:39.416Z,1014.16
2019-05-16T00:53:38.365Z,1014.11
2019-05-16T00:54:38.360Z,1014.13
2019-05-16T00:55:38.886Z,1014.07
2019-05-16T00:56:38.399Z,1014.10
2019-05-16T00:57:38.969Z,1014.05
2019-05-16T00:58:38.082Z,1013.95
2019-05-16T00:59:38.190Z,1013.96
2019-05-16T01:00:38.183Z,1013.94
2019-05-16T01:01:38.905Z,1013.91
2019-05-16T01:02:38.266Z,1013.86
2019-05-16T01:03:37.895Z,1013.89
2019-05-16T01:04:38.150Z,1013.85
2019-05-16T01:05:38.860Z,1013.85
2019-05-16T01:06:38.179Z,1013.82
2019-05-16T01:07:39.102Z,1013.82
2019-05-16T01:08:38.567Z,1013.79
2019-05-16T01:09:38.598Z,1013.74
2019-05-16T01:10:39.038Z,1013.67
2019-05-16T01:11:38.136Z,1013.73
2019-05-16T01:12:39.135Z,1013.71
2019-05-16T01:13:38.166Z,1013.65
2019-05-16T01:14:38.496Z,1013.66
2019-05-16T01:15:38.061Z,1013.65
2019-05-16T01:16:38.265Z,1013.60
2019-05-16T01:17:39.129Z,1013.60
2019-05-16T01:18:37.961Z,1013.54
2019-05-16T01:19:37.986Z,1013.59
2019-05-16T01:20:38.637Z,1013.55
2019-05-16T01:21:39.188Z,1013.54
2019-05-16T01:22:38.590Z,1013.55
2019-05-16T01:23:38.877Z,1013.51
2019-05-16T01:24:41.144Z,1013.48
2019-05-16T01:25:38.764Z,1013.47
2019-05-16T01:26:39.162Z,1013.47
2019-05-16T01:27:38.644Z,1013.48
2019-05-16T01:28:37.874Z,1013.44
2019-05-16T01:29:38.510Z,1013.42
2019-05-16T01:30:38.054Z,1013.48
2019-05-16T01:31:37.924Z,1013.43
2019-05-16T01:32:39.161Z,1013.42
2019-05-16T01:33:38.536Z,1013.40
2019-05-16T01:34:37.792Z,1013.36
2019-05-16T01:35:38.642Z,1013.32
2019-05-16T01:36:40.640Z,1013.32
2019-05-16T01:37:38.482Z,1013.30
2019-05-16T01:38:38.982Z,1013.28
2019-05-16T01:39:38.175Z,1013.28
2019-05-16T01:40:38.753Z,1013.25
2019-05-16T01:41:38.190Z,1013.20
2019-05-16T01:42:38.695Z,1013.21
2019-05-16T01:43:37.745Z,1013.23
2019-05-16T01:44:38.169Z,1013.20
2019-05-16T01:45:38.524Z,1013.25
2019-05-16T01:46:39.092Z,1013.16
2019-05-16T01:47:39.374Z,1013.16
2019-05-16T01:48:38.178Z,1013.18
2019-05-16T01:49:38.103Z,1013.15
2019-05-16T01:50:38.767Z,1013.07
2019-05-16T01:51:37.948Z,1012.95
2019-05-16T01:52:38.298Z,1013.03
2019-05-16T01:53:39.336Z,1012.97
2019-05-16T01:54:38.794Z,1012.93
2019-05-16T01:55:38.176Z,1012.90
2019-05-16T01:56:38.741Z,1012.89
2019-05-16T01:57:39.204Z,1012.91
2019-05-16T01:58:38.218Z,1012.87
2019-05-16T01:59:38.027Z,1012.89
2019-05-16T02:00:47.831Z,1012.82
2019-05-16T02:01:38.099Z,1012.81
2019-05-16T02:02:38.545Z,1012.73
2019-05-16T02:03:38.741Z,1012.72
2019-05-16T02:04:37.981Z,1012.72
2019-05-16T02:05:38.712Z,1012.68
2019-05-16T02:06:48.450Z,1012.64
2019-05-16T02:07:38.799Z,1012.58
2019-05-16T02:08:38.011Z,1012.56
2019-05-16T02:09:38.448Z,1012.54
2019-05-16T02:10:37.870Z,1012.55
2019-05-16T02:11:38.852Z,1012.53
2019-05-16T02:12:38.464Z,1012.52
2019-05-16T02:13:39.087Z,1012.53
2019-05-16T02:14:38.768Z,1012.50
2019-05-16T02:15:38.340Z,1012.52
2019-05-16T02:16:38.443Z,1012.56
2019-05-16T02:17:38.299Z,1012.55
2019-05-16T02:18:38.179Z,1012.56
2019-05-16T02:19:38.506Z,1012.56
2019-05-16T02:20:39.223Z,1012.55
2019-05-16T02:21:38.831Z,1012.49
2019-05-16T02:22:39.046Z,1012.50
2019-05-16T02:23:38.162Z,1012.50
2019-05-16T02:24:38.838Z,1012.47
2019-05-16T02:25:40.563Z,1012.42
2019-05-16T02:26:38.585Z,1012.42
2019-05-16T02:27:38.195Z,1012.45
2019-05-16T02:28:40.871Z,1012.42
2019-05-16T02:29:39.973Z,1012.41
2019-05-16T02:30:36.822Z,1012.39
2019-05-16T02:31:36.781Z,1012.36
2019-05-16T02:32:36.767Z,1012.35
2019-05-16T02:33:36.810Z,1012.31
2019-05-16T02:34:36.746Z,1012.34
2019-05-16T02:35:36.769Z,1012.41
2019-05-16T02:36:36.729Z,1012.38
2019-05-16T02:37:36.718Z,1012.36
2019-05-16T02:38:36.735Z,1012.40
2019-05-16T02:39:36.703Z,1012.36
2019-05-16T02:40:36.715Z,1012.35
2019-05-16T02:41:36.670Z,1012.37
2019-05-16T02:42:36.664Z,1012.35
2019-05-16T02:43:36.656Z,1012.36
2019-05-16T02:44:36.644Z,1012.30
2019-05-16T02:45:36.628Z,1012.32
2019-05-16T02:46:36.652Z,1012.32
2019-05-16T02:47:36.605Z,1012.32
2019-05-16T02:48:36.600Z,1012.27
2019-05-16T02:49:36.592Z,1012.27
2019-05-16T02:50:36.629Z,1012.29
2019-05-16T02:51:36.604Z,1012.26
2019-05-16T02:52:36.563Z,1012.23
2019-05-16T02:53:36.544Z,1012.30
2019-05-16T02:54:36.540Z,1012.24
2019-05-16T02:55:36.523Z,1012.23
2019-05-16T02:56:36.549Z,1012.20
2019-05-16T02:57:36.516Z,1012.19
2019-05-16T02:58:36.500Z,1012.20
2019-05-16T02:59:36.478Z,1012.23
2019-05-16T03:00:36.513Z,1012.18
2019-05-16T03:01:36.498Z,1012.16
2019-05-16T03:02:36.451Z,1012.22
2019-05-16T03:03:36.442Z,1012.13
2019-05-16T03:04:39.878Z,1012.13
2019-05-16T03:05:37.413Z,1012.14
2019-05-16T03:06:36.434Z,1012.11
2019-05-16T03:07:41.906Z,1012.13
2019-05-16T03:08:40.964Z,1012.09
2019-05-16T03:09:36.381Z,1012.09
2019-05-16T03:10:36.371Z,1012.11
2019-05-16T03:11:36.377Z,1012.05
2019-05-16T03:12:36.339Z,1012.05
2019-05-16T03:13:36.334Z,1012.01
2019-05-16T03:14:36.323Z,1011.97
2019-05-16T03:15:36.321Z,1012.01
2019-05-16T03:16:36.330Z,1011.97
2019-05-16T03:17:36.285Z,1011.98
2019-05-16T03:18:36.278Z,1011.96
2019-05-16T03:19:36.263Z,1011.92
2019-05-16T03:20:36.257Z,1011.96
2019-05-16T03:21:36.278Z,1011.91
2019-05-16T03:22:36.274Z,1011.89
2019-05-16T03:23:36.235Z,1011.92
2019-05-16T03:24:36.213Z,1011.90
2019-05-16T03:25:36.199Z,1011.87
2019-05-16T03:26:36.219Z,1011.87
2019-05-16T03:27:36.183Z,1011.83
2019-05-16T03:28:36.173Z,1011.85
2019-05-16T03:29:36.162Z,1011.85
2019-05-16T03:30:36.145Z,1011.87
2019-05-16T03:31:36.168Z,1011.82
2019-05-16T03:32:36.137Z,1011.81
2019-05-16T03:33:43.313Z,1011.87
2019-05-16T03:34:37.114Z,1011.83
2019-05-16T03:35:36.104Z,1011.84
2019-05-16T03:36:36.117Z,1011.81
2019-05-16T03:37:50.263Z,1011.82
2019-05-16T03:38:37.058Z,1011.83
2019-05-16T03:39:36.052Z,1011.79
2019-05-16T03:40:36.043Z,1011.79
2019-05-16T03:41:36.062Z,1011.81
2019-05-16T03:42:36.023Z,1011.74
2019-05-16T03:43:36.032Z,1011.76
2019-05-16T03:44:36.003Z,1011.74
2019-05-16T03:45:35.993Z,1011.74
2019-05-16T03:46:36.011Z,1011.76
2019-05-16T03:47:35.969Z,1011.74
2019-05-16T03:48:35.961Z,1011.74
2019-05-16T03:49:35.943Z,1011.73
2019-05-16T03:50:35.930Z,1011.72
2019-05-16T03:51:35.940Z,1011.69
2019-05-16T03:52:39.052Z,1011.70
2019-05-16T03:53:36.910Z,1011.70
2019-05-16T03:54:35.903Z,1011.68
2019-05-16T03:55:35.884Z,1011.67
2019-05-16T03:56:35.899Z,1011.64
2019-05-16T03:57:35.882Z,1011.71
2019-05-16T03:58:35.848Z,1011.66
2019-05-16T03:59:35.832Z,1011.68
2019-05-16T04:00:35.830Z,1011.64
2019-05-16T04:01:35.863Z,1011.64
2019-05-16T04:02:35.834Z,1011.66
2019-05-16T04:03:35.832Z,1011.66
2019-05-16T04:04:35.786Z,1011.66
2019-05-16T04:05:35.775Z,1011.66
2019-05-16T04:06:35.768Z,1011.64
2019-05-16T04:07:35.797Z,1011.62
2019-05-16T04:08:35.737Z,1011.60
2019-05-16T04:09:35.728Z,1011.55
2019-05-16T04:10:35.715Z,1011.59
2019-05-16T04:11:35.706Z,1011.55
2019-05-16T04:12:35.734Z,1011.54
2019-05-16T04:13:35.692Z,1011.57
2019-05-16T04:14:35.682Z,1011.54
2019-05-16T04:15:35.669Z,1011.58
2019-05-16T04:16:35.655Z,1011.52
2019-05-16T04:17:35.675Z,1011.52
2019-05-16T04:18:35.636Z,1011.47
2019-05-16T04:19:35.628Z,1011.54
2019-05-16T04:20:35.613Z,1011.53
2019-05-16T04:21:35.597Z,1011.51
2019-05-16T04:22:35.614Z,1011.45
2019-05-16T04:23:35.589Z,1011.45
2019-05-16T04:24:35.571Z,1011.38
2019-05-16T04:25:35.558Z,1011.44
2019-05-16T04:26:36.171Z,1011.42
2019-05-16T04:27:35.576Z,1011.39
2019-05-16T04:28:35.519Z,1011.39
2019-05-16T04:29:35.509Z,1011.39
2019-05-16T04:30:35.501Z,1011.36
2019-05-16T04:31:35.490Z,1011.36
2019-05-16T04:32:35.523Z,1011.38
2019-05-16T04:33:35.474Z,1011.38
2019-05-16T04:34:35.461Z,1011.41
2019-05-16T04:35:35.465Z,1011.42
2019-05-16T04:36:35.441Z,1011.41
2019-05-16T04:37:35.475Z,1011.40
2019-05-16T04:38:41.638Z,1011.40
2019-05-16T04:39:36.405Z,1011.37
2019-05-16T04:40:38.017Z,1011.38
2019-05-16T04:41:35.383Z,1011.34
2019-05-16T04:42:35.393Z,1011.35
2019-05-16T04:43:35.372Z,1011.36
2019-05-16T04:44:35.357Z,1011.34
2019-05-16T04:45:35.343Z,1011.38
2019-05-16T04:46:35.334Z,1011.38
2019-05-16T04:47:35.353Z,1011.33
2019-05-16T04:48:35.308Z,1011.33
2019-05-16T04:49:35.294Z,1011.30
2019-05-16T04:50:35.293Z,1011.32
2019-05-16T04:51:35.281Z,1011.28
2019-05-16T04:52:35.295Z,1011.31
2019-05-16T04:53:35.252Z,1011.30
2019-05-16T04:54:35.240Z,1011.27
2019-05-16T04:55:35.247Z,1011.25
2019-05-16T04:56:35.228Z,1011.26
2019-05-16T04:57:35.248Z,1011.26
2019-05-16T04:58:35.204Z,1011.31
2019-05-16T04:59:35.196Z,1011.29
2019-05-16T05:00:35.180Z,1011.26
2019-05-16T05:01:35.168Z,1011.27
2019-05-16T05:02:35.175Z,1011.22
2019-05-16T05:03:35.149Z,1011.21
2019-05-16T05:04:35.140Z,1011.26
2019-05-16T05:05:35.130Z,1011.22
2019-05-16T05:06:35.120Z,1011.22
2019-05-16T05:07:35.141Z,1011.23
2019-05-16T05:08:49.157Z,1011.24
2019-05-16T05:09:36.086Z,1011.19
2019-05-16T05:10:35.076Z,1011.21
2019-05-16T05:11:35.064Z,1011.17
2019-05-16T05:12:35.080Z,1011.18
2019-05-16T05:13:35.038Z,1011.21
2019-05-16T05:14:35.025Z,1011.19
2019-05-16T05:15:35.015Z,1011.19
2019-05-16T05:16:35.011Z,1011.28
2019-05-16T05:17:35.037Z,1011.28
2019-05-16T05:18:35.001Z,1011.22
2019-05-16T05:19:34.978Z,1011.23
2019-05-16T05:20:34.965Z,1011.18
2019-05-16T05:21:34.959Z,1011.19
2019-05-16T05:22:34.981Z,1011.17
2019-05-16T05:23:34.941Z,1011.13
2019-05-16T05:24:34.940Z,1011.12
2019-05-16T05:25:34.906Z,1011.09
2019-05-16T05:26:34.897Z,1011.06
2019-05-16T05:27:34.918Z,1010.98
2019-05-16T05:28:34.881Z,1011.04
2019-05-16T05:29:34.869Z,1011.02
2019-05-16T05:30:34.864Z,1011.12
2019-05-16T05:31:35.691Z,1011.14
2019-05-16T05:32:34.868Z,1011.13
2019-05-16T05:33:34.832Z,1011.12
2019-05-16T05:34:34.812Z,1011.17
2019-05-16T05:35:34.802Z,1011.13
2019-05-16T05:36:34.794Z,1011.16
2019-05-16T05:37:34.818Z,1011.20
2019-05-16T05:38:34.812Z,1011.20
2019-05-16T05:39:34.756Z,1011.23
2019-05-16T05:40:34.755Z,1011.21
2019-05-16T05:41:34.740Z,1011.23
2019-05-16T05:42:34.766Z,1011.24
2019-05-16T05:43:34.726Z,1011.21
2019-05-16T05:44:34.702Z,1011.20
2019-05-16T05:45:34.694Z,1011.18
2019-05-16T05:46:34.686Z,1011.15
2019-05-16T05:47:34.706Z,1011.15
2019-05-16T05:48:34.669Z,1011.13
2019-05-16T05:49:34.686Z,1011.13
2019-05-16T05:50:34.713Z,1011.07
2019-05-16T05:51:34.701Z,1011.09
2019-05-16T05:52:34.618Z,1011.08
2019-05-16T05:53:34.637Z,1011.12
2019-05-16T05:54:34.600Z,1011.13
2019-05-16T05:55:34.593Z,1011.17
2019-05-16T05:56:34.579Z,1011.18
2019-05-16T05:57:34.562Z,1011.15
2019-05-16T05:58:34.573Z,1011.12
2019-05-16T05:59:34.541Z,1011.07
2019-05-16T06:00:34.539Z,1011.06
2019-05-16T06:01:34.538Z,1011.04
2019-05-16T06:02:34.531Z,1011.04
2019-05-16T06:03:34.527Z,1011.06
2019-05-16T06:04:34.487Z,1011.04
2019-05-16T06:05:35.009Z,1011.03
2019-05-16T06:06:34.469Z,1011.05
2019-05-16T06:07:34.458Z,1011.03
2019-05-16T06:08:34.475Z,1011.03
2019-05-16T06:09:34.457Z,1011.00
2019-05-16T06:10:34.430Z,1011.00
2019-05-16T06:11:34.423Z,1010.98
2019-05-16T06:12:34.410Z,1010.94
2019-05-16T06:13:34.415Z,1010.91
2019-05-16T06:14:34.399Z,1010.92
2019-05-16T06:15:34.374Z,1010.95
2019-05-16T06:16:34.361Z,1010.96
2019-05-16T06:17:34.355Z,1010.99
2019-05-16T06:18:34.368Z,1010.98
2019-05-16T06:19:34.339Z,1010.98
2019-05-16T06:20:34.323Z,1011.00
2019-05-16T06:21:34.403Z,1011.06
2019-05-16T06:22:34.313Z,1011.02
2019-05-16T06:23:34.308Z,1010.98
2019-05-16T06:24:34.275Z,1010.98
2019-05-16T06:25:34.263Z,1010.98
2019-05-16T06:26:34.258Z,1010.92
2019-05-16T06:27:34.248Z,1010.86
2019-05-16T06:28:34.303Z,1010.87
2019-05-16T06:29:34.251Z,1010.89
2019-05-16T06:30:34.346Z,1010.87
2019-05-16T06:31:34.201Z,1010.87
2019-05-16T06:32:34.195Z,1010.89
2019-05-16T06:33:34.213Z,1010.88
2019-05-16T06:34:34.175Z,1010.85
2019-05-16T06:35:34.170Z,1010.81
2019-05-16T06:36:34.145Z,1010.82
2019-05-16T06:37:34.134Z,1010.80
2019-05-16T06:38:34.164Z,1010.83
2019-05-16T06:39:42.028Z,1010.83
2019-05-16T06:40:35.109Z,1010.84
2019-05-16T06:41:34.097Z,1010.88
2019-05-16T06:42:34.081Z,1010.83
2019-05-16T06:43:34.116Z,1010.83
2019-05-16T06:44:34.066Z,1010.82
2019-05-16T06:45:34.056Z,1010.84
2019-05-16T06:46:44.029Z,1010.87
2019-05-16T06:47:35.317Z,1010.85
2019-05-16T06:48:34.854Z,1010.85
2019-05-16T06:49:34.010Z,1010.81
2019-05-16T06:50:34.004Z,1010.79
2019-05-16T06:51:33.993Z,1010.81
2019-05-16T06:52:33.983Z,1010.83
2019-05-16T06:53:34.003Z,1010.76
2019-05-16T06:54:33.964Z,1010.79
2019-05-16T06:55:33.958Z,1010.77
2019-05-16T06:56:33.935Z,1010.74
2019-05-16T06:57:33.938Z,1010.76
2019-05-16T06:58:44.749Z,1010.74
2019-05-16T06:59:34.906Z,1010.78
2019-05-16T07:00:34.031Z,1010.73
2019-05-16T07:01:33.882Z,1010.70
2019-05-16T07:02:34.687Z,1010.73
2019-05-16T07:03:34.075Z,1010.72
2019-05-16T07:04:33.890Z,1010.76
2019-05-16T07:05:33.847Z,1010.69
2019-05-16T07:06:51.790Z,1010.70
2019-05-16T07:07:34.820Z,1010.70
2019-05-16T07:08:33.830Z,1010.65
2019-05-16T07:09:33.816Z,1010.67
2019-05-16T07:10:33.785Z,1010.63
2019-05-16T07:11:33.778Z,1010.63
2019-05-16T07:12:34.077Z,1010.62
2019-05-16T07:13:33.761Z,1010.59
2019-05-16T07:14:33.777Z,1010.59
2019-05-16T07:15:33.740Z,1010.57
2019-05-16T07:16:33.734Z,1010.59
2019-05-16T07:17:33.717Z,1010.60
2019-05-16T07:18:33.740Z,1010.60
2019-05-16T07:19:35.486Z,1010.57
2019-05-16T07:20:33.679Z,1010.59
2019-05-16T07:21:33.674Z,1010.57
2019-05-16T07:22:33.658Z,1010.55
2019-05-16T07:23:33.652Z,1010.53
2019-05-16T07:24:33.679Z,1010.54
2019-05-16T07:25:33.637Z,1010.53
2019-05-16T07:26:33.623Z,1010.57
2019-05-16T07:27:33.612Z,1010.59
2019-05-16T07:28:33.597Z,1010.60
2019-05-16T07:29:33.689Z,1010.58
2019-05-16T07:30:33.595Z,1010.57
2019-05-16T07:31:33.573Z,1010.53
2019-05-16T07:32:33.554Z,1010.52
2019-05-16T07:33:33.577Z,1010.57
2019-05-16T07:34:33.577Z,1010.54
2019-05-16T07:35:33.531Z,1010.59
2019-05-16T07:36:33.517Z,1010.55
2019-05-16T07:37:33.507Z,1010.56
2019-05-16T07:38:33.496Z,1010.58
2019-05-16T07:39:33.523Z,1010.55
2019-05-16T07:40:33.484Z,1010.55
2019-05-16T07:41:33.461Z,1010.54
2019-05-16T07:42:33.449Z,1010.55
2019-05-16T07:43:33.439Z,1010.52
2019-05-16T07:44:33.594Z,1010.49
2019-05-16T07:45:33.460Z,1010.52
2019-05-16T07:46:33.405Z,1010.48
2019-05-16T07:47:33.421Z,1010.46
2019-05-16T07:48:33.392Z,1010.47
2019-05-16T07:49:33.410Z,1010.47
2019-05-16T07:50:33.386Z,1010.47
2019-05-16T07:51:33.358Z,1010.46
2019-05-16T07:52:36.252Z,1010.43
2019-05-16T07:53:33.358Z,1010.41
2019-05-16T07:54:34.544Z,1010.36
2019-05-16T07:55:33.344Z,1010.36
2019-05-16T07:56:33.305Z,1010.33
2019-05-16T07:57:33.299Z,1010.31
2019-05-16T07:58:33.284Z,1010.30
2019-05-16T07:59:33.308Z,1010.28
2019-05-16T08:00:48.413Z,1010.30
2019-05-16T08:01:34.270Z,1010.31
2019-05-16T08:02:33.246Z,1010.32
2019-05-16T08:03:33.242Z,1010.33
2019-05-16T08:04:33.237Z,1010.34
2019-05-16T08:05:33.551Z,1010.32
2019-05-16T08:06:34.130Z,1010.35
2019-05-16T08:07:33.710Z,1010.36
2019-05-16T08:08:33.181Z,1010.37
2019-05-16T08:09:33.201Z,1010.36
2019-05-16T08:10:41.315Z,1010.31
2019-05-16T08:11:34.148Z,1010.27
2019-05-16T08:12:33.213Z,1010.31
2019-05-16T08:13:33.121Z,1010.27
2019-05-16T08:14:35.168Z,1010.25
2019-05-16T08:15:33.098Z,1010.25
2019-05-16T08:16:33.096Z,1010.27
2019-05-16T08:17:33.086Z,1010.34
2019-05-16T08:18:33.072Z,1010.34
2019-05-16T08:19:33.098Z,1010.34
2019-05-16T08:20:33.083Z,1010.34
2019-05-16T08:21:33.089Z,1010.33
2019-05-16T08:22:33.034Z,1010.30
2019-05-16T08:23:33.029Z,1010.29
2019-05-16T08:24:36.040Z,1010.30
2019-05-16T08:25:32.993Z,1010.28
2019-05-16T08:26:38.687Z,1010.24
2019-05-16T08:27:33.974Z,1010.26
2019-05-16T08:28:32.969Z,1010.28
2019-05-16T08:29:32.978Z,1010.27
2019-05-16T08:30:32.948Z,1010.26
2019-05-16T08:31:32.937Z,1010.23
2019-05-16T08:32:32.924Z,1010.25
2019-05-16T08:33:32.911Z,1010.27
2019-05-16T08:34:32.924Z,1010.22
2019-05-16T08:35:32.894Z,1010.26
2019-05-16T08:36:32.877Z,1010.25
2019-05-16T08:38:33.880Z,1010.24
2019-05-16T08:39:32.889Z,1010.24
2019-05-16T08:40:32.840Z,1010.20
2019-05-16T08:41:32.830Z,1010.18
2019-05-16T08:42:32.818Z,1010.16
2019-05-16T08:43:32.807Z,1010.20
2019-05-16T08:44:32.822Z,1010.21
2019-05-16T08:45:32.814Z,1010.20
2019-05-16T08:46:32.780Z,1010.23
2019-05-16T08:47:32.804Z,1010.19
2019-05-16T08:48:32.781Z,1010.17
2019-05-16T08:49:32.748Z,1010.18
2019-05-16T08:50:35.016Z,1010.18
2019-05-16T08:51:33.449Z,1010.17
2019-05-16T08:52:32.715Z,1010.17
2019-05-16T08:53:32.702Z,1010.12
2019-05-16T08:54:32.702Z,1010.12
2019-05-16T08:55:32.711Z,1010.15
2019-05-16T08:56:32.665Z,1010.11
2019-05-16T08:57:33.540Z,1010.11
2019-05-16T08:58:33.323Z,1010.08
2019-05-16T08:59:34.136Z,1010.09
2019-05-16T09:00:33.446Z,1010.06
2019-05-16T09:01:35.051Z,1010.05
2019-05-16T09:02:36.753Z,1010.03
2019-05-16T09:03:32.980Z,1010.07
2019-05-16T09:04:34.289Z,1010.03
2019-05-16T09:05:33.598Z,1010.02
2019-05-16T09:06:32.568Z,1010.06
2019-05-16T09:07:32.569Z,1010.05
2019-05-16T09:08:33.086Z,1010.03
2019-05-16T09:09:42.828Z,1010.03
2019-05-16T09:10:36.027Z,1010.26
2019-05-16T09:10:49.946Z,1009.99
2019-05-16T09:11:43.313Z,1010.03
2019-05-16T09:12:33.500Z,1009.98
2019-05-16T09:13:32.490Z,1009.96
2019-05-16T09:14:36.308Z,1009.96
2019-05-16T09:15:33.501Z,1009.92
2019-05-16T09:16:32.452Z,1009.90
2019-05-16T09:17:32.444Z,1009.90
2019-05-16T09:18:40.825Z,1009.93
2019-05-16T09:19:33.421Z,1009.94
2019-05-16T09:20:32.446Z,1009.89
2019-05-16T09:21:32.411Z,1009.91
2019-05-16T09:22:32.389Z,1009.90
2019-05-16T09:23:32.398Z,1009.87
2019-05-16T09:24:32.377Z,1009.83
2019-05-16T09:25:32.400Z,1009.82
2019-05-16T09:26:32.389Z,1009.87
2019-05-16T09:27:32.342Z,1009.85
2019-05-16T09:28:32.329Z,1009.82
2019-05-16T09:29:32.325Z,1009.86
2019-05-16T09:30:32.359Z,1009.83
2019-05-16T09:31:32.302Z,1009.81
2019-05-16T09:32:32.311Z,1009.86
2019-05-16T09:33:32.321Z,1009.81
2019-05-16T09:34:32.268Z,1009.85
2019-05-16T09:35:32.290Z,1009.85
2019-05-16T09:36:32.251Z,1009.85
2019-05-16T09:37:32.232Z,1009.88
2019-05-16T09:38:32.225Z,1009.90
2019-05-16T09:39:32.216Z,1009.86
2019-05-16T09:40:32.233Z,1009.89
2019-05-16T09:41:46.372Z,1009.88
2019-05-16T09:42:33.176Z,1009.87
2019-05-16T09:43:32.174Z,1009.82
2019-05-16T09:44:32.163Z,1009.80
2019-05-16T09:45:32.220Z,1009.80
2019-05-16T09:46:32.192Z,1009.73
2019-05-16T09:47:32.140Z,1009.76
2019-05-16T09:48:32.126Z,1009.77
2019-05-16T09:49:32.105Z,1009.77
2019-05-16T09:50:32.126Z,1009.76
2019-05-16T09:51:32.088Z,1009.74
2019-05-16T09:52:32.086Z,1009.72
2019-05-16T09:53:32.066Z,1009.72
2019-05-16T09:54:32.055Z,1009.72
2019-05-16T09:55:32.073Z,1009.73
2019-05-16T09:56:32.035Z,1009.71
2019-05-16T09:57:32.028Z,1009.71
2019-05-16T09:58:32.016Z,1009.71
2019-05-16T09:59:32.029Z,1009.76
2019-05-16T10:00:32.019Z,1009.73
2019-05-16T10:01:31.997Z,1009.76
2019-05-16T10:02:31.968Z,1009.74
2019-05-16T10:03:31.954Z,1009.69
2019-05-16T10:04:31.950Z,1009.70
2019-05-16T10:05:31.976Z,1009.71
2019-05-16T10:06:31.929Z,1009.71
2019-05-16T10:07:31.917Z,1009.69
2019-05-16T10:08:34.200Z,1009.71
2019-05-16T10:09:42.202Z,1009.72
2019-05-16T10:10:32.914Z,1009.77
2019-05-16T10:11:32.158Z,1009.73
2019-05-16T10:12:31.868Z,1009.76
2019-05-16T10:13:31.848Z,1009.76
2019-05-16T10:14:31.837Z,1009.78
2019-05-16T10:15:31.825Z,1009.71
2019-05-16T10:16:31.851Z,1009.77
2019-05-16T10:17:31.876Z,1009.77
2019-05-16T10:18:31.798Z,1009.76
2019-05-16T10:19:31.797Z,1009.71
2019-05-16T10:20:31.795Z,1009.68
2019-05-16T10:21:31.792Z,1009.64
2019-05-16T10:22:31.760Z,1009.67
2019-05-16T10:23:31.740Z,1009.61
2019-05-16T10:24:31.759Z,1009.60
2019-05-16T10:25:31.753Z,1009.65
2019-05-16T10:26:32.146Z,1009.60
2019-05-16T10:27:31.697Z,1009.62
2019-05-16T10:28:31.693Z,1009.62
2019-05-16T10:29:31.699Z,1009.57
2019-05-16T10:30:31.673Z,1009.56
2019-05-16T10:31:44.858Z,1009.53
2019-05-16T10:32:32.651Z,1009.53
2019-05-16T10:33:31.634Z,1009.54
2019-05-16T10:34:31.622Z,1009.56
2019-05-16T10:35:31.631Z,1009.49
2019-05-16T10:36:31.626Z,1009.50
2019-05-16T10:37:31.594Z,1009.52
2019-05-16T10:38:31.589Z,1009.51
2019-05-16T10:39:31.573Z,1009.51
2019-05-16T10:40:31.554Z,1009.52
2019-05-16T10:41:31.576Z,1009.48
2019-05-16T10:42:31.541Z,1009.51
2019-05-16T10:43:31.537Z,1009.52
2019-05-16T10:44:31.515Z,1009.54
2019-05-16T10:45:31.515Z,1009.57
2019-05-16T10:46:31.521Z,1009.57
2019-05-16T10:47:31.549Z,1009.61
2019-05-16T10:48:31.638Z,1009.55
2019-05-16T10:49:37.666Z,1009.48
2019-05-16T10:50:36.976Z,1009.48
2019-05-16T10:51:31.497Z,1009.47
2019-05-16T10:52:32.030Z,1009.49
2019-05-16T10:53:58.076Z,1009.50
2019-05-16T10:54:32.462Z,1009.48
2019-05-16T10:55:31.389Z,1009.52
2019-05-16T10:56:31.422Z,1009.46
2019-05-16T10:57:31.532Z,1009.46
2019-05-16T10:58:37.159Z,1009.45
2019-05-16T11:00:06.680Z,1009.36
2019-05-16T11:00:58.028Z,1009.35
2019-05-16T11:01:32.332Z,1009.34
2019-05-16T11:02:31.386Z,1009.34
2019-05-16T11:03:31.414Z,1009.35
2019-05-16T11:04:49.577Z,1009.39
2019-05-16T11:05:36.091Z,1009.38
2019-05-16T11:06:31.275Z,1009.35
2019-05-16T11:07:31.297Z,1009.34
2019-05-16T11:08:31.255Z,1009.35
2019-05-16T11:09:31.259Z,1009.30
2019-05-16T11:10:31.299Z,1009.32
2019-05-16T11:11:31.253Z,1009.31
2019-05-16T11:12:45.906Z,1009.31
2019-05-16T11:13:32.196Z,1009.31
2019-05-16T11:14:31.194Z,1009.36
2019-05-16T11:15:40.651Z,1009.38
2019-05-16T11:16:32.165Z,1009.40
2019-05-16T11:17:31.240Z,1009.47
2019-05-16T11:18:31.141Z,1009.50
2019-05-16T11:19:31.148Z,1009.47
2019-05-16T11:20:31.192Z,1009.44
2019-05-16T11:21:31.160Z,1009.40
2019-05-16T11:22:31.149Z,1009.41
2019-05-16T11:23:31.576Z,1009.41
2019-05-16T11:24:31.145Z,1009.39
2019-05-16T11:25:32.600Z,1009.36
2019-05-16T11:26:31.114Z,1009.44
2019-05-16T11:27:31.049Z,1009.44
2019-05-16T11:28:31.175Z,1009.41
2019-05-16T11:29:31.055Z,1009.46
2019-05-16T11:30:31.113Z,1009.43
2019-05-16T11:31:31.009Z,1009.47
2019-05-16T11:32:31.030Z,1009.48
2019-05-16T11:33:31.062Z,1009.49
2019-05-16T11:34:31.002Z,1009.47
2019-05-16T11:35:30.997Z,1009.36
2019-05-16T11:36:30.970Z,1009.39
2019-05-16T11:37:31.033Z,1009.39
2019-05-16T11:38:30.946Z,1009.41
2019-05-16T11:39:30.918Z,1009.39
2019-05-16T11:40:30.907Z,1009.38
2019-05-16T11:41:30.909Z,1009.39
2019-05-16T11:42:30.939Z,1009.34
2019-05-16T11:43:30.889Z,1009.34
2019-05-16T11:44:30.876Z,1009.40
2019-05-16T11:45:30.880Z,1009.40
2019-05-16T11:46:30.866Z,1009.38
2019-05-16T11:47:30.891Z,1009.39
2019-05-16T11:48:30.817Z,1009.37
2019-05-16T11:49:30.821Z,1009.34
2019-05-16T11:50:30.800Z,1009.35
2019-05-16T11:51:30.782Z,1009.34
2019-05-16T11:52:30.834Z,1009.37
2019-05-16T11:53:30.769Z,1009.31
2019-05-16T11:54:30.766Z,1009.26
2019-05-16T11:55:33.982Z,1009.28
2019-05-16T11:56:30.746Z,1009.32
2019-05-16T11:57:30.783Z,1009.26
2019-05-16T11:58:30.705Z,1009.26
2019-05-16T11:59:30.708Z,1009.21
2019-05-16T12:00:30.873Z,1009.22
2019-05-16T12:01:30.696Z,1009.19
2019-05-16T12:02:30.743Z,1009.17
2019-05-16T12:03:30.672Z,1009.17
2019-05-16T12:04:30.655Z,1009.20
2019-05-16T12:05:30.667Z,1009.23